Flintstone, Georgia
Current Conditions -  °F | °C
As of 12:53 AM on Thursday 29 Jan 2015 (Local Time) from KCHA Reporting Station
Clear Clear  
Wind Chill: 32°   Ceiling: Unl
Heat Index: 32°   Visibility: 10mi
Dew Point: 24°   Wind: 0mph
Humidity: 73%   Direction: NA
Pressure: 30.26"   Gusts: NA
Location:  34.94°N, 85.34°W
Report Text: KCHA 290553Z AUTO 00000KT 10SM CLR 00/M04 A3026 RMK AO2 SLP250 T00001044 10061 21006 55003
Loading
Personal Weather Stations






























Interactive Weather Map New forecast layout! Learn more

10-Day Weather Forecast

Advertisements
Track Severe Weather on mobile